sensor_id;sensor_type;location;lat;lon;timestamp;temperature;humidity
7214;DHT22;3648;50.614;13.830;2023-08-20T00:01:22;23.10;99.90
7214;DHT22;3648;50.614;13.830;2023-08-20T00:03:52;23.10;99.90
7214;DHT22;3648;50.614;13.830;2023-08-20T00:06:20;23.20;99.90
7214;DHT22;3648;50.614;13.830;2023-08-20T00:08:47;23.20;99.90
7214;DHT22;3648;50.614;13.830;2023-08-20T00:11:15;23.10;99.90
7214;DHT22;3648;50.614;13.830;2023-08-20T00:13:42;23.10;99.90
7214;DHT22;3648;50.614;13.830;2023-08-20T00:16:10;23.10;99.90
7214;DHT22;3648;50.614;13.830;2023-08-20T00:18:38;23.10;99.90
7214;DHT22;3648;50.614;13.830;2023-08-20T00:21:07;23.10;99.90
7214;DHT22;3648;50.614;13.830;2023-08-20T00:23:35;23.10;99.90
7214;DHT22;3648;50.614;13.830;2023-08-20T00:26:03;23.10;99.90
7214;DHT22;3648;50.614;13.830;2023-08-20T00:28:30;23.00;99.90
7214;DHT22;3648;50.614;13.830;2023-08-20T00:30:59;22.90;99.90
7214;DHT22;3648;50.614;13.830;2023-08-20T00:33:26;22.90;99.90
7214;DHT22;3648;50.614;13.830;2023-08-20T00:35:53;22.90;99.90
7214;DHT22;3648;50.614;13.830;2023-08-20T00:38:21;22.80;99.90
7214;DHT22;3648;50.614;13.830;2023-08-20T00:40:48;22.90;99.90
7214;DHT22;3648;50.614;13.830;2023-08-20T00:43:15;22.90;99.90
7214;DHT22;3648;50.614;13.830;2023-08-20T00:45:43;22.90;99.90
7214;DHT22;3648;50.614;13.830;2023-08-20T00:48:10;22.90;99.90
7214;DHT22;3648;50.614;13.830;2023-08-20T00:50:38;22.90;99.90
7214;DHT22;3648;50.614;13.830;2023-08-20T00:53:06;22.90;99.90
7214;DHT22;3648;50.614;13.830;2023-08-20T00:55:35;22.90;99.90
7214;DHT22;3648;50.614;13.830;2023-08-20T00:58:03;22.80;99.90
7214;DHT22;3648;50.614;13.830;2023-08-20T01:00:30;22.80;99.90
7214;DHT22;3648;50.614;13.830;2023-08-20T01:02:57;22.90;99.90
7214;DHT22;3648;50.614;13.830;2023-08-20T01:05:24;22.90;99.90
7214;DHT22;3648;50.614;13.830;2023-08-20T01:08:11;22.90;99.90
7214;DHT22;3648;50.614;13.830;2023-08-20T01:10:48;23.00;99.90
7214;DHT22;3648;50.614;13.830;2023-08-20T01:13:19;22.90;99.90
7214;DHT22;3648;50.614;13.830;2023-08-20T01:15:46;23.00;99.90
7214;DHT22;3648;50.614;13.830;2023-08-20T01:18:13;23.00;99.90
7214;DHT22;3648;50.614;13.830;2023-08-20T01:20:44;23.00;99.90
7214;DHT22;3648;50.614;13.830;2023-08-20T01:23:48;23.00;99.90
7214;DHT22;3648;50.614;13.830;2023-08-20T01:26:34;23.00;99.90
7214;DHT22;3648;50.614;13.830;2023-08-20T01:29:04;23.00;99.90
7214;DHT22;3648;50.614;13.830;2023-08-20T01:31:33;23.00;99.90
7214;DHT22;3648;50.614;13.830;2023-08-20T01:34:01;23.00;99.90
7214;DHT22;3648;50.614;13.830;2023-08-20T01:36:28;23.00;99.90
7214;DHT22;3648;50.614;13.830;2023-08-20T01:38:55;23.00;99.90
7214;DHT22;3648;50.614;13.830;2023-08-20T01:41:22;22.90;99.90
7214;DHT22;3648;50.614;13.830;2023-08-20T01:43:49;22.90;99.90
7214;DHT22;3648;50.614;13.830;2023-08-20T01:46:17;22.80;99.90
7214;DHT22;3648;50.614;13.830;2023-08-20T01:48:44;22.80;99.90
7214;DHT22;3648;50.614;13.830;2023-08-20T01:51:11;22.80;99.90
7214;DHT22;3648;50.614;13.830;2023-08-20T01:53:38;22.80;99.90
7214;DHT22;3648;50.614;13.830;2023-08-20T01:56:11;22.80;99.90
7214;DHT22;3648;50.614;13.830;2023-08-20T01:58:38;22.80;99.90
7214;DHT22;3648;50.614;13.830;2023-08-20T02:01:05;22.80;99.90
7214;DHT22;3648;50.614;13.830;2023-08-20T02:03:35;22.70;99.90
7214;DHT22;3648;50.614;13.830;2023-08-20T02:06:03;22.70;99.90
7214;DHT22;3648;50.614;13.830;2023-08-20T02:08:30;22.60;99.90
7214;DHT22;3648;50.614;13.830;2023-08-20T02:11:01;22.70;99.90
7214;DHT22;3648;50.614;13.830;2023-08-20T02:13:28;22.70;99.90
7214;DHT22;3648;50.614;13.830;2023-08-20T02:15:59;22.70;99.90
7214;DHT22;3648;50.614;13.830;2023-08-20T02:18:27;22.70;99.90
7214;DHT22;3648;50.614;13.830;2023-08-20T02:20:55;22.70;99.90
7214;DHT22;3648;50.614;13.830;2023-08-20T02:23:22;22.70;99.90
7214;DHT22;3648;50.614;13.830;2023-08-20T02:25:49;22.70;99.90
7214;DHT22;3648;50.614;13.830;2023-08-20T02:28:16;22.70;99.90
7214;DHT22;3648;50.614;13.830;2023-08-20T02:30:45;22.70;99.90
7214;DHT22;3648;50.614;13.830;2023-08-20T02:33:12;22.70;99.90
7214;DHT22;3648;50.614;13.830;2023-08-20T02:35:39;22.70;99.90
7214;DHT22;3648;50.614;13.830;2023-08-20T02:38:08;22.70;99.90
7214;DHT22;3648;50.614;13.830;2023-08-20T02:40:40;22.70;99.90
7214;DHT22;3648;50.614;13.830;2023-08-20T02:43:07;22.70;99.90
7214;DHT22;3648;50.614;13.830;2023-08-20T02:45:40;22.60;99.90
7214;DHT22;3648;50.614;13.830;2023-08-20T02:48:07;22.50;99.90
7214;DHT22;3648;50.614;13.830;2023-08-20T02:50:34;22.40;99.90
7214;DHT22;3648;50.614;13.830;2023-08-20T02:53:01;22.20;99.90
7214;DHT22;3648;50.614;13.830;2023-08-20T02:55:31;22.10;99.90
7214;DHT22;3648;50.614;13.830;2023-08-20T02:57:58;22.10;99.90
7214;DHT22;3648;50.614;13.830;2023-08-20T03:00:25;22.10;99.90
7214;DHT22;3648;50.614;13.830;2023-08-20T03:02:52;22.20;99.90
7214;DHT22;3648;50.614;13.830;2023-08-20T03:05:19;22.20;99.90
7214;DHT22;3648;50.614;13.830;2023-08-20T03:07:46;22.20;99.90
7214;DHT22;3648;50.614;13.830;2023-08-20T03:10:13;22.20;99.90
7214;DHT22;3648;50.614;13.830;2023-08-20T03:12:41;22.20;99.90
7214;DHT22;3648;50.614;13.830;2023-08-20T03:15:09;22.20;99.90
7214;DHT22;3648;50.614;13.830;2023-08-20T03:17:36;22.20;99.90
7214;DHT22;3648;50.614;13.830;2023-08-20T03:20:03;22.20;99.90
7214;DHT22;3648;50.614;13.830;2023-08-20T03:22:32;22.20;99.90
7214;DHT22;3648;50.614;13.830;2023-08-20T03:24:59;22.20;99.90
7214;DHT22;3648;50.614;13.830;2023-08-20T03:27:26;22.20;99.90
7214;DHT22;3648;50.614;13.830;2023-08-20T03:29:55;22.20;99.90
7214;DHT22;3648;50.614;13.830;2023-08-20T03:32:22;22.20;99.90
7214;DHT22;3648;50.614;13.830;2023-08-20T03:34:50;22.20;99.90
7214;DHT22;3648;50.614;13.830;2023-08-20T03:37:19;22.20;99.90
7214;DHT22;3648;50.614;13.830;2023-08-20T03:39:46;22.20;99.90
7214;DHT22;3648;50.614;13.830;2023-08-20T03:42:13;22.20;99.90
7214;DHT22;3648;50.614;13.830;2023-08-20T03:44:40;22.30;99.90
7214;DHT22;3648;50.614;13.830;2023-08-20T03:47:09;22.30;99.90
7214;DHT22;3648;50.614;13.830;2023-08-20T03:49:36;22.30;99.90
7214;DHT22;3648;50.614;13.830;2023-08-20T03:52:03;22.20;99.90
7214;DHT22;3648;50.614;13.830;2023-08-20T03:54:33;22.20;99.90
7214;DHT22;3648;50.614;13.830;2023-08-20T03:57:00;22.20;99.90
7214;DHT22;3648;50.614;13.830;2023-08-20T03:59:27;22.30;99.90
7214;DHT22;3648;50.614;13.830;2023-08-20T04:01:54;22.20;99.90
7214;DHT22;3648;50.614;13.830;2023-08-20T04:04:22;22.30;99.90
7214;DHT22;3648;50.614;13.830;2023-08-20T04:06:49;22.30;99.90
7214;DHT22;3648;50.614;13.830;2023-08-20T04:09:16;22.30;99.90
7214;DHT22;3648;50.614;13.830;2023-08-20T04:11:43;22.30;99.90
7214;DHT22;3648;50.614;13.830;2023-08-20T04:14:10;22.30;99.90
7214;DHT22;3648;50.614;13.830;2023-08-20T04:16:38;22.30;99.90
7214;DHT22;3648;50.614;13.830;2023-08-20T04:19:05;22.30;99.90
7214;DHT22;3648;50.614;13.830;2023-08-20T04:21:34;22.30;99.90
7214;DHT22;3648;50.614;13.830;2023-08-20T04:24:01;22.30;99.90
7214;DHT22;3648;50.614;13.830;2023-08-20T04:26:28;22.40;99.90
7214;DHT22;3648;50.614;13.830;2023-08-20T04:28:55;22.40;99.90
7214;DHT22;3648;50.614;13.830;2023-08-20T04:31:21;22.40;99.90
7214;DHT22;3648;50.614;13.830;2023-08-20T04:33:48;22.40;99.90
7214;DHT22;3648;50.614;13.830;2023-08-20T04:36:15;22.40;99.90
7214;DHT22;3648;50.614;13.830;2023-08-20T04:38:44;22.40;99.90
7214;DHT22;3648;50.614;13.830;2023-08-20T04:41:11;22.40;99.90
7214;DHT22;3648;50.614;13.830;2023-08-20T04:43:38;22.30;99.90
7214;DHT22;3648;50.614;13.830;2023-08-20T04:46:05;22.30;99.90
7214;DHT22;3648;50.614;13.830;2023-08-20T04:48:32;22.30;99.90
7214;DHT22;3648;50.614;13.830;2023-08-20T04:50:59;22.30;99.90
7214;DHT22;3648;50.614;13.830;2023-08-20T04:53:26;22.30;99.90
7214;DHT22;3648;50.614;13.830;2023-08-20T04:55:54;22.20;99.90
7214;DHT22;3648;50.614;13.830;2023-08-20T04:58:21;22.20;99.90
7214;DHT22;3648;50.614;13.830;2023-08-20T05:00:48;22.20;99.90
7214;DHT22;3648;50.614;13.830;2023-08-20T05:03:15;22.20;99.90
7214;DHT22;3648;50.614;13.830;2023-08-20T05:05:42;22.20;99.90
7214;DHT22;3648;50.614;13.830;2023-08-20T05:08:09;22.20;99.90
7214;DHT22;3648;50.614;13.830;2023-08-20T05:10:37;22.20;99.90
7214;DHT22;3648;50.614;13.830;2023-08-20T05:13:05;22.30;99.90
7214;DHT22;3648;50.614;13.830;2023-08-20T05:15:32;22.30;99.90
7214;DHT22;3648;50.614;13.830;2023-08-20T05:18:00;22.30;99.90
7214;DHT22;3648;50.614;13.830;2023-08-20T05:20:27;22.30;99.90
7214;DHT22;3648;50.614;13.830;2023-08-20T05:22:54;22.30;99.90
7214;DHT22;3648;50.614;13.830;2023-08-20T05:25:20;22.30;99.90
7214;DHT22;3648;50.614;13.830;2023-08-20T05:27:47;22.30;99.90
7214;DHT22;3648;50.614;13.830;2023-08-20T05:30:18;22.30;99.90
7214;DHT22;3648;50.614;13.830;2023-08-20T05:32:45;22.40;99.90
7214;DHT22;3648;50.614;13.830;2023-08-20T05:35:12;22.40;99.90
7214;DHT22;3648;50.614;13.830;2023-08-20T05:37:39;22.40;99.90
7214;DHT22;3648;50.614;13.830;2023-08-20T05:40:07;22.50;99.90
7214;DHT22;3648;50.614;13.830;2023-08-20T05:42:34;22.50;99.90
7214;DHT22;3648;50.614;13.830;2023-08-20T05:45:01;22.50;99.90
7214;DHT22;3648;50.614;13.830;2023-08-20T05:47:29;22.60;99.90
7214;DHT22;3648;50.614;13.830;2023-08-20T05:49:57;22.60;99.90
7214;DHT22;3648;50.614;13.830;2023-08-20T05:52:23;22.70;99.90
7214;DHT22;3648;50.614;13.830;2023-08-20T05:54:50;22.70;99.90
7214;DHT22;3648;50.614;13.830;2023-08-20T05:57:17;22.70;99.90
7214;DHT22;3648;50.614;13.830;2023-08-20T05:59:45;22.70;99.90
7214;DHT22;3648;50.614;13.830;2023-08-20T06:02:15;22.80;99.90
7214;DHT22;3648;50.614;13.830;2023-08-20T06:04:44;22.80;99.90
7214;DHT22;3648;50.614;13.830;2023-08-20T06:07:11;22.80;99.90
7214;DHT22;3648;50.614;13.830;2023-08-20T06:09:38;22.90;99.90
7214;DHT22;3648;50.614;13.830;2023-08-20T06:12:06;22.90;99.90
7214;DHT22;3648;50.614;13.830;2023-08-20T06:14:33;22.90;99.90
7214;DHT22;3648;50.614;13.830;2023-08-20T06:17:00;22.90;99.90
7214;DHT22;3648;50.614;13.830;2023-08-20T06:19:28;23.00;99.90
7214;DHT22;3648;50.614;13.830;2023-08-20T06:21:57;23.00;99.90
7214;DHT22;3648;50.614;13.830;2023-08-20T06:24:24;23.10;99.90
7214;DHT22;3648;50.614;13.830;2023-08-20T06:26:52;23.10;99.90
7214;DHT22;3648;50.614;13.830;2023-08-20T06:29:19;23.10;99.90
7214;DHT22;3648;50.614;13.830;2023-08-20T06:34:27;23.10;99.90
7214;DHT22;3648;50.614;13.830;2023-08-20T06:36:54;23.20;99.90
7214;DHT22;3648;50.614;13.830;2023-08-20T06:39:21;23.20;99.90
7214;DHT22;3648;50.614;13.830;2023-08-20T06:41:48;23.30;99.90
7214;DHT22;3648;50.614;13.830;2023-08-20T06:44:15;23.30;99.90
7214;DHT22;3648;50.614;13.830;2023-08-20T06:46:42;23.30;99.90
7214;DHT22;3648;50.614;13.830;2023-08-20T06:49:09;23.40;99.90
7214;DHT22;3648;50.614;13.830;2023-08-20T06:51:37;23.40;99.90
7214;DHT22;3648;50.614;13.830;2023-08-20T06:54:04;23.50;99.90
7214;DHT22;3648;50.614;13.830;2023-08-20T06:56:32;23.50;99.90
7214;DHT22;3648;50.614;13.830;2023-08-20T06:59:00;23.60;99.90
7214;DHT22;3648;50.614;13.830;2023-08-20T07:01:28;23.60;99.90
7214;DHT22;3648;50.614;13.830;2023-08-20T07:03:55;23.70;99.90
7214;DHT22;3648;50.614;13.830;2023-08-20T07:06:22;23.70;99.90
7214;DHT22;3648;50.614;13.830;2023-08-20T07:08:51;23.80;99.90
7214;DHT22;3648;50.614;13.830;2023-08-20T07:11:18;23.80;99.90
7214;DHT22;3648;50.614;13.830;2023-08-20T07:13:45;23.90;99.90
7214;DHT22;3648;50.614;13.830;2023-08-20T07:16:12;24.00;99.90
7214;DHT22;3648;50.614;13.830;2023-08-20T07:18:39;24.00;99.90
7214;DHT22;3648;50.614;13.830;2023-08-20T07:21:06;24.10;99.90
7214;DHT22;3648;50.614;13.830;2023-08-20T07:23:33;24.10;99.90
7214;DHT22;3648;50.614;13.830;2023-08-20T07:26:09;24.20;99.90
7214;DHT22;3648;50.614;13.830;2023-08-20T07:28:37;24.30;99.90
7214;DHT22;3648;50.614;13.830;2023-08-20T07:31:22;24.30;99.90
7214;DHT22;3648;50.614;13.830;2023-08-20T07:33:50;24.30;99.90
7214;DHT22;3648;50.614;13.830;2023-08-20T07:36:19;24.40;99.90
7214;DHT22;3648;50.614;13.830;2023-08-20T07:38:47;24.40;99.90
7214;DHT22;3648;50.614;13.830;2023-08-20T07:41:16;24.50;99.90
7214;DHT22;3648;50.614;13.830;2023-08-20T07:43:43;24.50;99.90
7214;DHT22;3648;50.614;13.830;2023-08-20T07:46:10;24.40;99.90
7214;DHT22;3648;50.614;13.830;2023-08-20T07:48:38;24.50;99.90
7214;DHT22;3648;50.614;13.830;2023-08-20T07:51:06;24.60;99.90
7214;DHT22;3648;50.614;13.830;2023-08-20T07:53:34;24.70;99.90
7214;DHT22;3648;50.614;13.830;2023-08-20T07:56:02;24.70;99.90
7214;DHT22;3648;50.614;13.830;2023-08-20T07:58:31;24.80;99.90
7214;DHT22;3648;50.614;13.830;2023-08-20T08:00:58;24.80;99.90
7214;DHT22;3648;50.614;13.830;2023-08-20T08:03:25;24.90;99.90
7214;DHT22;3648;50.614;13.830;2023-08-20T08:05:53;25.00;99.90
7214;DHT22;3648;50.614;13.830;2023-08-20T08:08:21;25.00;99.90
7214;DHT22;3648;50.614;13.830;2023-08-20T08:10:49;25.10;99.90
7214;DHT22;3648;50.614;13.830;2023-08-20T08:13:20;25.10;99.90
7214;DHT22;3648;50.614;13.830;2023-08-20T08:15:49;25.20;99.90
7214;DHT22;3648;50.614;13.830;2023-08-20T08:18:18;25.30;99.90
7214;DHT22;3648;50.614;13.830;2023-08-20T08:20:46;25.40;99.90
7214;DHT22;3648;50.614;13.830;2023-08-20T08:23:13;25.50;99.90
7214;DHT22;3648;50.614;13.830;2023-08-20T08:25:41;25.60;99.90
7214;DHT22;3648;50.614;13.830;2023-08-20T08:28:08;25.70;99.90
7214;DHT22;3648;50.614;13.830;2023-08-20T08:30:35;25.80;99.90
7214;DHT22;3648;50.614;13.830;2023-08-20T08:33:04;25.90;99.90
7214;DHT22;3648;50.614;13.830;2023-08-20T08:35:31;26.00;99.90
7214;DHT22;3648;50.614;13.830;2023-08-20T08:37:58;26.10;99.90
7214;DHT22;3648;50.614;13.830;2023-08-20T08:40:28;26.30;99.90
7214;DHT22;3648;50.614;13.830;2023-08-20T08:42:55;26.40;99.90
7214;DHT22;3648;50.614;13.830;2023-08-20T08:45:23;26.50;99.90
7214;DHT22;3648;50.614;13.830;2023-08-20T08:47:51;26.70;99.90
7214;DHT22;3648;50.614;13.830;2023-08-20T08:50:20;26.90;99.90
7214;DHT22;3648;50.614;13.830;2023-08-20T08:52:50;27.10;99.90
7214;DHT22;3648;50.614;13.830;2023-08-20T08:55:17;27.20;99.90
7214;DHT22;3648;50.614;13.830;2023-08-20T08:57:44;27.40;99.90
7214;DHT22;3648;50.614;13.830;2023-08-20T09:00:13;27.70;99.90
7214;DHT22;3648;50.614;13.830;2023-08-20T09:02:40;27.90;99.90
7214;DHT22;3648;50.614;13.830;2023-08-20T09:05:07;28.10;99.90
7214;DHT22;3648;50.614;13.830;2023-08-20T09:07:42;28.30;99.90
7214;DHT22;3648;50.614;13.830;2023-08-20T09:10:10;28.50;99.90
7214;DHT22;3648;50.614;13.830;2023-08-20T09:12:37;28.70;99.90
7214;DHT22;3648;50.614;13.830;2023-08-20T09:15:10;28.80;99.90
7214;DHT22;3648;50.614;13.830;2023-08-20T09:17:37;29.00;99.90
7214;DHT22;3648;50.614;13.830;2023-08-20T09:20:05;28.90;99.90
7214;DHT22;3648;50.614;13.830;2023-08-20T09:22:32;29.00;99.90
7214;DHT22;3648;50.614;13.830;2023-08-20T09:25:03;29.20;99.90
7214;DHT22;3648;50.614;13.830;2023-08-20T09:27:39;29.30;99.90
7214;DHT22;3648;50.614;13.830;2023-08-20T09:30:07;29.20;99.90
7214;DHT22;3648;50.614;13.830;2023-08-20T09:32:35;29.20;99.90
7214;DHT22;3648;50.614;13.830;2023-08-20T09:35:03;29.40;99.90
7214;DHT22;3648;50.614;13.830;2023-08-20T09:37:30;29.40;99.90
7214;DHT22;3648;50.614;13.830;2023-08-20T09:39:59;29.50;99.90
7214;DHT22;3648;50.614;13.830;2023-08-20T09:42:28;29.50;99.90
7214;DHT22;3648;50.614;13.830;2023-08-20T09:44:59;29.50;99.90
7214;DHT22;3648;50.614;13.830;2023-08-20T09:47:30;29.70;99.90
7214;DHT22;3648;50.614;13.830;2023-08-20T09:50:00;29.80;99.90
7214;DHT22;3648;50.614;13.830;2023-08-20T09:52:34;29.90;99.90
7214;DHT22;3648;50.614;13.830;2023-08-20T09:55:08;30.10;99.90
7214;DHT22;3648;50.614;13.830;2023-08-20T09:57:38;30.10;99.90
7214;DHT22;3648;50.614;13.830;2023-08-20T10:00:07;30.20;99.90
7214;DHT22;3648;50.614;13.830;2023-08-20T10:02:35;30.10;99.90
7214;DHT22;3648;50.614;13.830;2023-08-20T10:05:05;30.20;99.90
7214;DHT22;3648;50.614;13.830;2023-08-20T10:07:32;30.10;99.90
7214;DHT22;3648;50.614;13.830;2023-08-20T10:10:01;30.10;99.90
7214;DHT22;3648;50.614;13.830;2023-08-20T10:12:29;30.30;99.90
7214;DHT22;3648;50.614;13.830;2023-08-20T10:14:58;30.30;99.90
7214;DHT22;3648;50.614;13.830;2023-08-20T10:17:25;30.20;99.90
7214;DHT22;3648;50.614;13.830;2023-08-20T10:19:57;30.20;99.90
7214;DHT22;3648;50.614;13.830;2023-08-20T10:22:32;30.20;99.90
7214;DHT22;3648;50.614;13.830;2023-08-20T10:24:59;30.20;99.90
7214;DHT22;3648;50.614;13.830;2023-08-20T10:27:31;30.20;99.90
7214;DHT22;3648;50.614;13.830;2023-08-20T10:30:00;30.30;99.90
7214;DHT22;3648;50.614;13.830;2023-08-20T10:32:47;30.40;99.90
7214;DHT22;3648;50.614;13.830;2023-08-20T10:35:16;30.60;99.90
7214;DHT22;3648;50.614;13.830;2023-08-20T10:38:03;30.50;99.90
7214;DHT22;3648;50.614;13.830;2023-08-20T10:40:52;30.60;99.90
7214;DHT22;3648;50.614;13.830;2023-08-20T10:43:30;30.60;99.90
7214;DHT22;3648;50.614;13.830;2023-08-20T10:46:06;30.60;99.90
7214;DHT22;3648;50.614;13.830;2023-08-20T10:48:35;30.50;99.90
7214;DHT22;3648;50.614;13.830;2023-08-20T10:51:10;30.60;99.90
7214;DHT22;3648;50.614;13.830;2023-08-20T10:53:37;30.60;99.90
7214;DHT22;3648;50.614;13.830;2023-08-20T10:56:12;30.50;99.90
7214;DHT22;3648;50.614;13.830;2023-08-20T10:58:44;30.60;99.90
7214;DHT22;3648;50.614;13.830;2023-08-20T11:01:21;30.60;99.90
7214;DHT22;3648;50.614;13.830;2023-08-20T11:03:49;30.60;99.90
7214;DHT22;3648;50.614;13.830;2023-08-20T11:06:17;30.50;99.90
7214;DHT22;3648;50.614;13.830;2023-08-20T11:08:45;30.60;99.90
7214;DHT22;3648;50.614;13.830;2023-08-20T11:11:13;30.70;99.90
7214;DHT22;3648;50.614;13.830;2023-08-20T11:13:40;30.90;99.90
7214;DHT22;3648;50.614;13.830;2023-08-20T11:16:08;30.80;99.90
7214;DHT22;3648;50.614;13.830;2023-08-20T11:18:37;30.80;99.90
7214;DHT22;3648;50.614;13.830;2023-08-20T11:21:05;31.00;99.90
7214;DHT22;3648;50.614;13.830;2023-08-20T11:23:32;31.10;99.90
7214;DHT22;3648;50.614;13.830;2023-08-20T11:25:59;31.10;99.90
7214;DHT22;3648;50.614;13.830;2023-08-20T11:28:27;31.10;99.90
7214;DHT22;3648;50.614;13.830;2023-08-20T11:30:55;31.10;99.90
7214;DHT22;3648;50.614;13.830;2023-08-20T11:33:23;31.10;99.90
7214;DHT22;3648;50.614;13.830;2023-08-20T11:35:53;31.20;99.90
7214;DHT22;3648;50.614;13.830;2023-08-20T11:38:22;31.20;99.90
7214;DHT22;3648;50.614;13.830;2023-08-20T11:40:50;31.40;99.90
7214;DHT22;3648;50.614;13.830;2023-08-20T11:43:18;31.00;99.90
7214;DHT22;3648;50.614;13.830;2023-08-20T11:45:46;30.80;99.90
7214;DHT22;3648;50.614;13.830;2023-08-20T11:48:14;30.60;99.90
7214;DHT22;3648;50.614;13.830;2023-08-20T11:50:42;30.50;99.90
7214;DHT22;3648;50.614;13.830;2023-08-20T11:53:11;30.40;99.90
7214;DHT22;3648;50.614;13.830;2023-08-20T11:55:39;30.40;99.90
7214;DHT22;3648;50.614;13.830;2023-08-20T11:58:11;30.40;99.90
7214;DHT22;3648;50.614;13.830;2023-08-20T12:00:38;30.50;99.90
7214;DHT22;3648;50.614;13.830;2023-08-20T12:03:08;30.70;99.90
7214;DHT22;3648;50.614;13.830;2023-08-20T12:05:35;30.80;99.90
7214;DHT22;3648;50.614;13.830;2023-08-20T12:08:03;30.80;99.90
7214;DHT22;3648;50.614;13.830;2023-08-20T12:10:32;30.90;99.90
7214;DHT22;3648;50.614;13.830;2023-08-20T12:13:02;31.00;99.90
7214;DHT22;3648;50.614;13.830;2023-08-20T12:15:29;31.20;99.90
7214;DHT22;3648;50.614;13.830;2023-08-20T12:17:57;31.20;99.90
7214;DHT22;3648;50.614;13.830;2023-08-20T12:20:27;31.10;99.90
7214;DHT22;3648;50.614;13.830;2023-08-20T12:23:01;31.20;99.90
7214;DHT22;3648;50.614;13.830;2023-08-20T12:25:32;31.30;99.90
7214;DHT22;3648;50.614;13.830;2023-08-20T12:28:01;31.40;99.90
7214;DHT22;3648;50.614;13.830;2023-08-20T12:30:29;31.40;99.90
7214;DHT22;3648;50.614;13.830;2023-08-20T12:33:02;31.40;99.90
7214;DHT22;3648;50.614;13.830;2023-08-20T12:35:29;31.60;99.90
7214;DHT22;3648;50.614;13.830;2023-08-20T12:37:57;31.70;99.90
7214;DHT22;3648;50.614;13.830;2023-08-20T12:40:25;31.70;99.90
7214;DHT22;3648;50.614;13.830;2023-08-20T12:42:53;31.90;99.90
7214;DHT22;3648;50.614;13.830;2023-08-20T12:45:21;32.10;99.90
7214;DHT22;3648;50.614;13.830;2023-08-20T12:47:48;32.20;99.90
7214;DHT22;3648;50.614;13.830;2023-08-20T12:50:16;32.10;99.90
7214;DHT22;3648;50.614;13.830;2023-08-20T12:52:46;32.20;99.90
7214;DHT22;3648;50.614;13.830;2023-08-20T12:55:16;32.20;99.90
7214;DHT22;3648;50.614;13.830;2023-08-20T12:57:54;32.20;99.90
7214;DHT22;3648;50.614;13.830;2023-08-20T13:00:21;32.00;99.90
7214;DHT22;3648;50.614;13.830;2023-08-20T13:02:50;31.80;99.90
7214;DHT22;3648;50.614;13.830;2023-08-20T13:05:19;31.70;99.90
7214;DHT22;3648;50.614;13.830;2023-08-20T13:07:47;31.50;99.90
7214;DHT22;3648;50.614;13.830;2023-08-20T13:10:18;31.40;99.90
7214;DHT22;3648;50.614;13.830;2023-08-20T13:12:49;30.90;99.90
7214;DHT22;3648;50.614;13.830;2023-08-20T13:15:19;30.70;99.90
7214;DHT22;3648;50.614;13.830;2023-08-20T13:17:51;30.20;99.90
7214;DHT22;3648;50.614;13.830;2023-08-20T13:20:19;30.00;99.90
7214;DHT22;3648;50.614;13.830;2023-08-20T13:22:49;29.80;99.90
7214;DHT22;3648;50.614;13.830;2023-08-20T13:25:16;29.70;99.90
7214;DHT22;3648;50.614;13.830;2023-08-20T13:27:43;29.60;99.90
7214;DHT22;3648;50.614;13.830;2023-08-20T13:30:11;29.60;99.90
7214;DHT22;3648;50.614;13.830;2023-08-20T13:32:39;29.30;99.90
7214;DHT22;3648;50.614;13.830;2023-08-20T13:35:07;29.30;99.90
7214;DHT22;3648;50.614;13.830;2023-08-20T13:37:34;29.20;99.90
7214;DHT22;3648;50.614;13.830;2023-08-20T13:40:02;29.10;99.90
7214;DHT22;3648;50.614;13.830;2023-08-20T13:42:30;29.00;99.90
7214;DHT22;3648;50.614;13.830;2023-08-20T13:44:58;28.90;99.90
7214;DHT22;3648;50.614;13.830;2023-08-20T13:47:25;28.80;99.90
7214;DHT22;3648;50.614;13.830;2023-08-20T13:49:54;28.70;99.90
7214;DHT22;3648;50.614;13.830;2023-08-20T13:52:21;28.70;99.90
7214;DHT22;3648;50.614;13.830;2023-08-20T13:54:48;28.70;99.90
7214;DHT22;3648;50.614;13.830;2023-08-20T13:57:15;28.90;99.90
7214;DHT22;3648;50.614;13.830;2023-08-20T13:59:42;29.00;99.90
7214;DHT22;3648;50.614;13.830;2023-08-20T14:02:09;29.30;99.90
7214;DHT22;3648;50.614;13.830;2023-08-20T14:04:37;29.20;99.90
7214;DHT22;3648;50.614;13.830;2023-08-20T14:07:05;29.40;99.90
7214;DHT22;3648;50.614;13.830;2023-08-20T14:09:33;29.50;99.90
7214;DHT22;3648;50.614;13.830;2023-08-20T14:12:02;29.60;99.90
7214;DHT22;3648;50.614;13.830;2023-08-20T14:14:29;29.70;99.90
7214;DHT22;3648;50.614;13.830;2023-08-20T14:16:56;29.60;99.90
7214;DHT22;3648;50.614;13.830;2023-08-20T14:19:23;29.70;99.90
7214;DHT22;3648;50.614;13.830;2023-08-20T14:21:50;29.70;99.90
7214;DHT22;3648;50.614;13.830;2023-08-20T14:24:18;29.80;99.90
7214;DHT22;3648;50.614;13.830;2023-08-20T14:26:46;29.80;99.90
7214;DHT22;3648;50.614;13.830;2023-08-20T14:29:13;29.80;99.90
7214;DHT22;3648;50.614;13.830;2023-08-20T14:31:40;29.70;99.90
7214;DHT22;3648;50.614;13.830;2023-08-20T14:34:07;29.80;99.90
7214;DHT22;3648;50.614;13.830;2023-08-20T14:36:34;29.80;99.90
7214;DHT22;3648;50.614;13.830;2023-08-20T14:39:02;29.90;99.90
7214;DHT22;3648;50.614;13.830;2023-08-20T14:41:31;30.00;99.90
7214;DHT22;3648;50.614;13.830;2023-08-20T14:43:59;30.00;99.90
7214;DHT22;3648;50.614;13.830;2023-08-20T14:46:26;30.00;99.90
7214;DHT22;3648;50.614;13.830;2023-08-20T14:48:53;29.90;99.90
7214;DHT22;3648;50.614;13.830;2023-08-20T14:51:21;29.90;99.90
7214;DHT22;3648;50.614;13.830;2023-08-20T14:53:48;29.60;99.90
7214;DHT22;3648;50.614;13.830;2023-08-20T14:56:15;29.50;99.90
7214;DHT22;3648;50.614;13.830;2023-08-20T14:58:44;29.40;99.90
7214;DHT22;3648;50.614;13.830;2023-08-20T15:01:11;29.30;99.90
7214;DHT22;3648;50.614;13.830;2023-08-20T15:03:39;29.20;99.90
7214;DHT22;3648;50.614;13.830;2023-08-20T15:06:07;28.90;99.90
7214;DHT22;3648;50.614;13.830;2023-08-20T15:08:34;28.70;99.90
7214;DHT22;3648;50.614;13.830;2023-08-20T15:11:02;28.40;99.90
7214;DHT22;3648;50.614;13.830;2023-08-20T15:13:31;28.30;99.90
7214;DHT22;3648;50.614;13.830;2023-08-20T15:16:00;28.30;99.90
7214;DHT22;3648;50.614;13.830;2023-08-20T15:18:27;28.20;99.90
7214;DHT22;3648;50.614;13.830;2023-08-20T15:20:59;28.10;99.90
7214;DHT22;3648;50.614;13.830;2023-08-20T15:23:30;28.10;99.90
7214;DHT22;3648;50.614;13.830;2023-08-20T15:25:58;28.00;99.90
7214;DHT22;3648;50.614;13.830;2023-08-20T15:28:29;27.90;99.90
7214;DHT22;3648;50.614;13.830;2023-08-20T15:30:57;27.80;99.90
7214;DHT22;3648;50.614;13.830;2023-08-20T15:33:26;27.60;99.90
7214;DHT22;3648;50.614;13.830;2023-08-20T15:35:53;27.60;99.90
7214;DHT22;3648;50.614;13.830;2023-08-20T15:38:20;27.40;99.90
7214;DHT22;3648;50.614;13.830;2023-08-20T15:40:47;27.30;99.90
7214;DHT22;3648;50.614;13.830;2023-08-20T15:43:14;27.10;99.90
7214;DHT22;3648;50.614;13.830;2023-08-20T15:45:41;26.90;99.90
7214;DHT22;3648;50.614;13.830;2023-08-20T15:48:08;26.80;99.90
7214;DHT22;3648;50.614;13.830;2023-08-20T15:50:37;26.70;99.90
7214;DHT22;3648;50.614;13.830;2023-08-20T15:53:04;26.70;99.90
7214;DHT22;3648;50.614;13.830;2023-08-20T15:55:31;26.60;99.90